OIBS  Sirri Island  Airport

Iran

Add Bookmark
ICAO OIBS
IATA SXI
Type Airport
Status Operational
Latitude
25° 54' 32" N
25.908899
Longitude
54° 32' 21" E
54.539398
Local (DST + 5) UTC (GMT + 4)
Apr 25, 2015 08:42 Apr 25, 2015 04:12
Sunrise-Sunset Local UTC
Begin Civil Twilight 05:54 01:24
Sunrise 06:18 01:48
Sunset 07:21 14:51
End Civil Twilight 07:45 15:15
VFR
VFR
MVFR
MVFR
IFR
VFR
LIFR
VFR
Unknown
Unavailable

Current Weather

METAR Observed VFR
OIBS 250300Z 27020KT CAVOK 28/21 Q1008 Sat, Apr 25, 2015 @ 03:00 UTC
(1 Hour, 12 Minutes ago)
Visual Flight Rules
Wind Visibility Conditions
270° at 20 knots (37 kph) 10 km or more
  • No significant weather
Temperatures Readings Precipitation
Current Temp
28°C
82°F
Dewpoint
21°C
70°F
Heat Index
30°C
86°
Humidity 66%
Altimeter 29.76" Hg
Sea Level Pressure 1,008 mb
Field Elevation
14 m
46 ft
None Recorded

Additional weather within a 92.6km radius of OIBS

Map ICAO Location
OIBA 49.4km E (094°)
OIBL 74.8km N/NE (022°)
OIBK 88.5km NW (321°)
VFR
VFR
MVFR
MVFR
IFR
VFR
LIFR
VFR
Unknown
Unavailable
-
-

CheckWX.com is intended as a tool to help pilots better visualize weather data. It is not intended as a substitute for an official weather briefing obtained from a Flight Service Station. CheckWX.com does not meet the FAA requirements for an official pre-flight weather briefing. Therefore, it's important that pilots still call and obtain an official FSS pre-flight weather briefing.

© 2007-2015 CheckWX.com
04:12:59 UTC